sensor_id;sensor_type;location;lat;lon;timestamp;P1;durP1;ratioP1;P2;durP2;ratioP2
20369;SDS011;10344;47.592;9.600;2023-09-19T00:00:42;1.65;;;1.00;;
20369;SDS011;10344;47.592;9.600;2023-09-19T00:03:11;2.50;;;1.38;;
20369;SDS011;10344;47.592;9.600;2023-09-19T00:05:41;1.58;;;1.10;;
20369;SDS011;10344;47.592;9.600;2023-09-19T00:08:09;2.47;;;1.00;;
20369;SDS011;10344;47.592;9.600;2023-09-19T00:10:35;1.67;;;1.10;;
20369;SDS011;10344;47.592;9.600;2023-09-19T00:13:04;0.85;;;0.82;;
20369;SDS011;10344;47.592;9.600;2023-09-19T00:15:30;1.20;;;0.93;;
20369;SDS011;10344;47.592;9.600;2023-09-19T00:18:02;2.08;;;1.00;;
20369;SDS011;10344;47.592;9.600;2023-09-19T00:20:37;1.80;;;0.88;;
20369;SDS011;10344;47.592;9.600;2023-09-19T00:23:07;1.88;;;0.85;;
20369;SDS011;10344;47.592;9.600;2023-09-19T00:25:38;1.77;;;1.10;;
20369;SDS011;10344;47.592;9.600;2023-09-19T00:28:07;2.65;;;1.10;;
20369;SDS011;10344;47.592;9.600;2023-09-19T00:30:33;1.67;;;1.13;;
20369;SDS011;10344;47.592;9.600;2023-09-19T00:32:59;1.13;;;1.00;;
20369;SDS011;10344;47.592;9.600;2023-09-19T00:35:28;1.23;;;0.95;;
20369;SDS011;10344;47.592;9.600;2023-09-19T00:37:54;1.48;;;1.10;;
20369;SDS011;10344;47.592;9.600;2023-09-19T00:40:23;1.20;;;1.10;;
20369;SDS011;10344;47.592;9.600;2023-09-19T00:42:51;1.20;;;1.10;;
20369;SDS011;10344;47.592;9.600;2023-09-19T00:45:17;1.60;;;0.80;;
20369;SDS011;10344;47.592;9.600;2023-09-19T00:47:48;1.45;;;0.95;;
20369;SDS011;10344;47.592;9.600;2023-09-19T00:50:19;1.58;;;1.10;;
20369;SDS011;10344;47.592;9.600;2023-09-19T00:52:47;1.52;;;1.15;;
20369;SDS011;10344;47.592;9.600;2023-09-19T00:55:15;1.60;;;1.00;;
20369;SDS011;10344;47.592;9.600;2023-09-19T00:57:43;2.30;;;1.10;;
20369;SDS011;10344;47.592;9.600;2023-09-19T01:00:09;1.45;;;0.85;;
20369;SDS011;10344;47.592;9.600;2023-09-19T01:02:43;1.00;;;0.80;;
20369;SDS011;10344;47.592;9.600;2023-09-19T01:05:10;1.50;;;1.00;;
20369;SDS011;10344;47.592;9.600;2023-09-19T01:07:37;1.10;;;0.98;;
20369;SDS011;10344;47.592;9.600;2023-09-19T01:10:06;1.17;;;0.93;;
20369;SDS011;10344;47.592;9.600;2023-09-19T01:17:49;1.63;;;1.00;;
20369;SDS011;10344;47.592;9.600;2023-09-19T01:23:17;1.38;;;0.85;;
20369;SDS011;10344;47.592;9.600;2023-09-19T01:28:51;1.30;;;0.80;;
20369;SDS011;10344;47.592;9.600;2023-09-19T01:31:22;1.52;;;0.80;;
20369;SDS011;10344;47.592;9.600;2023-09-19T01:36:29;1.27;;;0.80;;
20369;SDS011;10344;47.592;9.600;2023-09-19T01:39:03;1.70;;;0.70;;
20369;SDS011;10344;47.592;9.600;2023-09-19T01:44:36;1.60;;;1.00;;
20369;SDS011;10344;47.592;9.600;2023-09-19T01:47:36;2.67;;;0.90;;
20369;SDS011;10344;47.592;9.600;2023-09-19T01:50:24;0.95;;;0.68;;
20369;SDS011;10344;47.592;9.600;2023-09-19T01:53:07;1.88;;;1.00;;
20369;SDS011;10344;47.592;9.600;2023-09-19T01:55:49;1.75;;;1.02;;
20369;SDS011;10344;47.592;9.600;2023-09-19T02:01:07;1.40;;;0.85;;
20369;SDS011;10344;47.592;9.600;2023-09-19T02:03:40;1.15;;;0.80;;
20369;SDS011;10344;47.592;9.600;2023-09-19T02:06:13;1.17;;;0.90;;
20369;SDS011;10344;47.592;9.600;2023-09-19T02:08:42;1.58;;;0.85;;
20369;SDS011;10344;47.592;9.600;2023-09-19T02:11:12;1.17;;;0.90;;
20369;SDS011;10344;47.592;9.600;2023-09-19T02:13:38;1.05;;;0.80;;
20369;SDS011;10344;47.592;9.600;2023-09-19T02:16:04;0.83;;;0.77;;
20369;SDS011;10344;47.592;9.600;2023-09-19T02:18:31;1.10;;;1.00;;
20369;SDS011;10344;47.592;9.600;2023-09-19T02:20:59;1.15;;;0.90;;
20369;SDS011;10344;47.592;9.600;2023-09-19T02:23:29;1.77;;;1.00;;
20369;SDS011;10344;47.592;9.600;2023-09-19T02:25:55;1.00;;;0.80;;
20369;SDS011;10344;47.592;9.600;2023-09-19T02:28:27;0.88;;;0.75;;
20369;SDS011;10344;47.592;9.600;2023-09-19T02:30:55;1.20;;;0.80;;
20369;SDS011;10344;47.592;9.600;2023-09-19T02:33:21;1.60;;;0.90;;
20369;SDS011;10344;47.592;9.600;2023-09-19T02:35:49;0.98;;;0.80;;
20369;SDS011;10344;47.592;9.600;2023-09-19T02:38:25;1.45;;;1.00;;
20369;SDS011;10344;47.592;9.600;2023-09-19T02:40:54;1.33;;;0.90;;
20369;SDS011;10344;47.592;9.600;2023-09-19T02:43:20;1.00;;;0.80;;
20369;SDS011;10344;47.592;9.600;2023-09-19T02:45:47;0.88;;;0.73;;
20369;SDS011;10344;47.592;9.600;2023-09-19T02:48:15;1.30;;;0.90;;
20369;SDS011;10344;47.592;9.600;2023-09-19T02:50:41;1.10;;;0.90;;
20369;SDS011;10344;47.592;9.600;2023-09-19T02:53:08;2.22;;;1.05;;
20369;SDS011;10344;47.592;9.600;2023-09-19T02:55:35;2.40;;;0.80;;
20369;SDS011;10344;47.592;9.600;2023-09-19T02:58:05;1.60;;;0.90;;
20369;SDS011;10344;47.592;9.600;2023-09-19T03:00:33;2.15;;;1.10;;
20369;SDS011;10344;47.592;9.600;2023-09-19T03:03:06;1.25;;;0.73;;
20369;SDS011;10344;47.592;9.600;2023-09-19T03:05:33;0.98;;;0.80;;
20369;SDS011;10344;47.592;9.600;2023-09-19T03:07:59;1.23;;;1.07;;
20369;SDS011;10344;47.592;9.600;2023-09-19T03:10:28;1.90;;;0.90;;
20369;SDS011;10344;47.592;9.600;2023-09-19T03:12:56;1.08;;;0.98;;
20369;SDS011;10344;47.592;9.600;2023-09-19T03:15:27;1.60;;;1.00;;
20369;SDS011;10344;47.592;9.600;2023-09-19T03:17:52;1.38;;;0.90;;
20369;SDS011;10344;47.592;9.600;2023-09-19T03:20:18;1.67;;;0.98;;
20369;SDS011;10344;47.592;9.600;2023-09-19T03:22:47;1.25;;;1.05;;
20369;SDS011;10344;47.592;9.600;2023-09-19T03:25:13;1.60;;;0.90;;
20369;SDS011;10344;47.592;9.600;2023-09-19T03:27:41;1.13;;;0.90;;
20369;SDS011;10344;47.592;9.600;2023-09-19T03:30:07;1.20;;;0.90;;
20369;SDS011;10344;47.592;9.600;2023-09-19T03:32:37;1.05;;;0.95;;
20369;SDS011;10344;47.592;9.600;2023-09-19T03:35:11;0.63;;;0.63;;
20369;SDS011;10344;47.592;9.600;2023-09-19T03:37:39;1.17;;;0.90;;
20369;SDS011;10344;47.592;9.600;2023-09-19T03:40:07;1.08;;;0.80;;
20369;SDS011;10344;47.592;9.600;2023-09-19T03:42:39;0.70;;;0.55;;
20369;SDS011;10344;47.592;9.600;2023-09-19T03:45:06;1.40;;;0.70;;
20369;SDS011;10344;47.592;9.600;2023-09-19T03:47:39;2.60;;;0.80;;
20369;SDS011;10344;47.592;9.600;2023-09-19T03:50:07;1.20;;;0.90;;
20369;SDS011;10344;47.592;9.600;2023-09-19T03:52:36;1.10;;;0.80;;
20369;SDS011;10344;47.592;9.600;2023-09-19T03:55:04;1.25;;;0.90;;
20369;SDS011;10344;47.592;9.600;2023-09-19T03:57:30;0.75;;;0.65;;
20369;SDS011;10344;47.592;9.600;2023-09-19T04:00:01;1.10;;;0.75;;
20369;SDS011;10344;47.592;9.600;2023-09-19T04:02:29;1.35;;;0.77;;
20369;SDS011;10344;47.592;9.600;2023-09-19T04:04:58;0.88;;;0.88;;
20369;SDS011;10344;47.592;9.600;2023-09-19T04:07:24;0.77;;;0.70;;
20369;SDS011;10344;47.592;9.600;2023-09-19T04:09:53;0.90;;;0.90;;
20369;SDS011;10344;47.592;9.600;2023-09-19T04:12:22;1.90;;;0.70;;
20369;SDS011;10344;47.592;9.600;2023-09-19T04:14:50;0.90;;;0.82;;
20369;SDS011;10344;47.592;9.600;2023-09-19T04:17:16;0.90;;;0.73;;
20369;SDS011;10344;47.592;9.600;2023-09-19T04:19:43;1.20;;;0.88;;
20369;SDS011;10344;47.592;9.600;2023-09-19T04:22:10;0.77;;;0.70;;
20369;SDS011;10344;47.592;9.600;2023-09-19T04:24:37;1.02;;;0.73;;
20369;SDS011;10344;47.592;9.600;2023-09-19T04:27:03;2.00;;;1.10;;
20369;SDS011;10344;47.592;9.600;2023-09-19T04:29:29;1.97;;;0.90;;
20369;SDS011;10344;47.592;9.600;2023-09-19T04:32:00;1.25;;;0.82;;
20369;SDS011;10344;47.592;9.600;2023-09-19T04:34:25;1.30;;;0.85;;
20369;SDS011;10344;47.592;9.600;2023-09-19T04:36:52;1.40;;;1.00;;
20369;SDS011;10344;47.592;9.600;2023-09-19T04:39:23;1.42;;;0.65;;
20369;SDS011;10344;47.592;9.600;2023-09-19T04:41:50;1.10;;;0.80;;
20369;SDS011;10344;47.592;9.600;2023-09-19T04:44:19;2.03;;;1.00;;
20369;SDS011;10344;47.592;9.600;2023-09-19T04:46:46;1.30;;;0.82;;
20369;SDS011;10344;47.592;9.600;2023-09-19T04:49:12;1.00;;;0.70;;
20369;SDS011;10344;47.592;9.600;2023-09-19T04:51:38;0.70;;;0.70;;
20369;SDS011;10344;47.592;9.600;2023-09-19T04:54:07;1.75;;;0.70;;
20369;SDS011;10344;47.592;9.600;2023-09-19T04:56:35;1.00;;;0.70;;
20369;SDS011;10344;47.592;9.600;2023-09-19T04:59:05;0.73;;;0.73;;
20369;SDS011;10344;47.592;9.600;2023-09-19T05:01:31;1.70;;;0.93;;
20369;SDS011;10344;47.592;9.600;2023-09-19T05:03:57;1.80;;;0.80;;
20369;SDS011;10344;47.592;9.600;2023-09-19T05:06:23;0.70;;;0.70;;
20369;SDS011;10344;47.592;9.600;2023-09-19T05:08:49;1.23;;;0.82;;
20369;SDS011;10344;47.592;9.600;2023-09-19T05:11:19;0.80;;;0.80;;
20369;SDS011;10344;47.592;9.600;2023-09-19T05:13:49;0.73;;;0.65;;
20369;SDS011;10344;47.592;9.600;2023-09-19T05:16:18;1.45;;;0.80;;
20369;SDS011;10344;47.592;9.600;2023-09-19T05:18:46;2.28;;;0.90;;
20369;SDS011;10344;47.592;9.600;2023-09-19T05:21:12;1.05;;;0.80;;
20369;SDS011;10344;47.592;9.600;2023-09-19T05:23:38;1.40;;;1.00;;
20369;SDS011;10344;47.592;9.600;2023-09-19T05:26:06;1.30;;;0.68;;
20369;SDS011;10344;47.592;9.600;2023-09-19T05:28:31;1.10;;;0.60;;
20369;SDS011;10344;47.592;9.600;2023-09-19T05:31:02;1.95;;;0.80;;
20369;SDS011;10344;47.592;9.600;2023-09-19T05:33:27;0.80;;;0.55;;
20369;SDS011;10344;47.592;9.600;2023-09-19T05:35:56;0.97;;;0.70;;
20369;SDS011;10344;47.592;9.600;2023-09-19T05:38:24;1.13;;;0.40;;
20369;SDS011;10344;47.592;9.600;2023-09-19T05:40:53;0.70;;;0.67;;
20369;SDS011;10344;47.592;9.600;2023-09-19T05:43:21;2.20;;;0.60;;
20369;SDS011;10344;47.592;9.600;2023-09-19T05:45:49;0.88;;;0.73;;
20369;SDS011;10344;47.592;9.600;2023-09-19T05:48:19;1.10;;;0.93;;
20369;SDS011;10344;47.592;9.600;2023-09-19T05:50:47;1.40;;;0.63;;
20369;SDS011;10344;47.592;9.600;2023-09-19T05:53:13;1.00;;;0.77;;
20369;SDS011;10344;47.592;9.600;2023-09-19T05:55:42;1.20;;;0.63;;
20369;SDS011;10344;47.592;9.600;2023-09-19T05:58:10;0.77;;;0.57;;
20369;SDS011;10344;47.592;9.600;2023-09-19T06:00:42;1.63;;;0.75;;
20369;SDS011;10344;47.592;9.600;2023-09-19T06:03:09;1.17;;;0.77;;
20369;SDS011;10344;47.592;9.600;2023-09-19T06:05:36;0.63;;;0.60;;
20369;SDS011;10344;47.592;9.600;2023-09-19T06:08:04;0.93;;;0.77;;
20369;SDS011;10344;47.592;9.600;2023-09-19T06:10:32;1.10;;;0.60;;
20369;SDS011;10344;47.592;9.600;2023-09-19T06:12:59;1.00;;;0.70;;
20369;SDS011;10344;47.592;9.600;2023-09-19T06:15:29;0.70;;;0.70;;
20369;SDS011;10344;47.592;9.600;2023-09-19T06:17:58;0.73;;;0.60;;
20369;SDS011;10344;47.592;9.600;2023-09-19T06:20:27;0.77;;;0.52;;
20369;SDS011;10344;47.592;9.600;2023-09-19T06:22:57;0.80;;;0.50;;
20369;SDS011;10344;47.592;9.600;2023-09-19T06:25:22;0.95;;;0.50;;
20369;SDS011;10344;47.592;9.600;2023-09-19T06:27:49;1.90;;;0.73;;
20369;SDS011;10344;47.592;9.600;2023-09-19T06:30:21;0.70;;;0.70;;
20369;SDS011;10344;47.592;9.600;2023-09-19T06:32:54;0.57;;;0.57;;
20369;SDS011;10344;47.592;9.600;2023-09-19T06:35:23;2.20;;;0.70;;
20369;SDS011;10344;47.592;9.600;2023-09-19T06:37:51;1.42;;;0.60;;
20369;SDS011;10344;47.592;9.600;2023-09-19T06:40:17;1.53;;;0.70;;
20369;SDS011;10344;47.592;9.600;2023-09-19T06:42:45;1.70;;;0.80;;
20369;SDS011;10344;47.592;9.600;2023-09-19T06:45:19;0.50;;;0.50;;
20369;SDS011;10344;47.592;9.600;2023-09-19T06:47:46;0.85;;;0.50;;
20369;SDS011;10344;47.592;9.600;2023-09-19T06:50:21;1.20;;;0.70;;
20369;SDS011;10344;47.592;9.600;2023-09-19T06:52:52;1.10;;;0.70;;
20369;SDS011;10344;47.592;9.600;2023-09-19T06:55:22;0.95;;;0.65;;
20369;SDS011;10344;47.592;9.600;2023-09-19T06:57:55;1.05;;;0.68;;
20369;SDS011;10344;47.592;9.600;2023-09-19T07:00:20;2.40;;;0.70;;
20369;SDS011;10344;47.592;9.600;2023-09-19T07:02:56;0.90;;;0.70;;
20369;SDS011;10344;47.592;9.600;2023-09-19T07:05:38;0.90;;;0.60;;
20369;SDS011;10344;47.592;9.600;2023-09-19T07:08:05;0.60;;;0.60;;
20369;SDS011;10344;47.592;9.600;2023-09-19T07:10:34;1.33;;;0.60;;
20369;SDS011;10344;47.592;9.600;2023-09-19T07:13:03;0.63;;;0.60;;
20369;SDS011;10344;47.592;9.600;2023-09-19T07:15:32;1.40;;;0.63;;
20369;SDS011;10344;47.592;9.600;2023-09-19T07:18:01;1.52;;;0.90;;
20369;SDS011;10344;47.592;9.600;2023-09-19T07:20:27;1.05;;;0.60;;
20369;SDS011;10344;47.592;9.600;2023-09-19T07:22:56;1.60;;;0.65;;
20369;SDS011;10344;47.592;9.600;2023-09-19T07:25:24;1.67;;;0.60;;
20369;SDS011;10344;47.592;9.600;2023-09-19T07:27:53;0.80;;;0.50;;
20369;SDS011;10344;47.592;9.600;2023-09-19T07:30:24;0.57;;;0.40;;
20369;SDS011;10344;47.592;9.600;2023-09-19T07:32:51;0.55;;;0.40;;
20369;SDS011;10344;47.592;9.600;2023-09-19T07:35:18;0.85;;;0.50;;
20369;SDS011;10344;47.592;9.600;2023-09-19T07:37:48;1.00;;;0.60;;
20369;SDS011;10344;47.592;9.600;2023-09-19T07:40:17;0.85;;;0.50;;
20369;SDS011;10344;47.592;9.600;2023-09-19T07:42:44;1.48;;;0.50;;
20369;SDS011;10344;47.592;9.600;2023-09-19T07:45:12;0.82;;;0.50;;
20369;SDS011;10344;47.592;9.600;2023-09-19T07:47:47;1.45;;;0.70;;
20369;SDS011;10344;47.592;9.600;2023-09-19T07:50:17;1.02;;;0.70;;
20369;SDS011;10344;47.592;9.600;2023-09-19T07:52:44;1.98;;;0.50;;
20369;SDS011;10344;47.592;9.600;2023-09-19T07:55:13;1.50;;;0.60;;
20369;SDS011;10344;47.592;9.600;2023-09-19T07:57:42;1.60;;;0.65;;
20369;SDS011;10344;47.592;9.600;2023-09-19T08:00:09;1.05;;;0.60;;
20369;SDS011;10344;47.592;9.600;2023-09-19T08:02:38;1.33;;;0.60;;
20369;SDS011;10344;47.592;9.600;2023-09-19T08:05:05;0.60;;;0.40;;
20369;SDS011;10344;47.592;9.600;2023-09-19T08:07:35;0.77;;;0.55;;
20369;SDS011;10344;47.592;9.600;2023-09-19T08:10:01;1.67;;;0.60;;
20369;SDS011;10344;47.592;9.600;2023-09-19T08:12:28;1.10;;;0.70;;
20369;SDS011;10344;47.592;9.600;2023-09-19T08:14:55;1.30;;;0.70;;
20369;SDS011;10344;47.592;9.600;2023-09-19T08:17:21;1.60;;;0.77;;
20369;SDS011;10344;47.592;9.600;2023-09-19T08:19:52;0.88;;;0.70;;
20369;SDS011;10344;47.592;9.600;2023-09-19T08:22:20;0.77;;;0.47;;
20369;SDS011;10344;47.592;9.600;2023-09-19T08:24:50;1.70;;;0.65;;
20369;SDS011;10344;47.592;9.600;2023-09-19T08:27:16;0.85;;;0.50;;
20369;SDS011;10344;47.592;9.600;2023-09-19T08:29:44;0.50;;;0.50;;
20369;SDS011;10344;47.592;9.600;2023-09-19T08:32:12;0.50;;;0.40;;
20369;SDS011;10344;47.592;9.600;2023-09-19T08:34:39;0.93;;;0.60;;
20369;SDS011;10344;47.592;9.600;2023-09-19T08:37:06;1.05;;;0.60;;
20369;SDS011;10344;47.592;9.600;2023-09-19T08:39:39;1.10;;;0.50;;
20369;SDS011;10344;47.592;9.600;2023-09-19T08:42:05;0.88;;;0.65;;
20369;SDS011;10344;47.592;9.600;2023-09-19T08:44:35;0.85;;;0.52;;
20369;SDS011;10344;47.592;9.600;2023-09-19T08:47:11;0.65;;;0.50;;
20369;SDS011;10344;47.592;9.600;2023-09-19T08:52:42;0.80;;;0.55;;
20369;SDS011;10344;47.592;9.600;2023-09-19T08:55:13;1.23;;;0.60;;
20369;SDS011;10344;47.592;9.600;2023-09-19T08:57:48;0.90;;;0.60;;
20369;SDS011;10344;47.592;9.600;2023-09-19T09:00:18;1.03;;;0.63;;
20369;SDS011;10344;47.592;9.600;2023-09-19T09:02:46;0.90;;;0.60;;
20369;SDS011;10344;47.592;9.600;2023-09-19T09:05:14;1.27;;;0.57;;
20369;SDS011;10344;47.592;9.600;2023-09-19T09:07:47;0.60;;;0.40;;
20369;SDS011;10344;47.592;9.600;2023-09-19T09:10:18;0.70;;;0.60;;
20369;SDS011;10344;47.592;9.600;2023-09-19T09:12:49;0.77;;;0.60;;
20369;SDS011;10344;47.592;9.600;2023-09-19T09:15:21;1.80;;;0.60;;
20369;SDS011;10344;47.592;9.600;2023-09-19T09:17:50;0.57;;;0.50;;
20369;SDS011;10344;47.592;9.600;2023-09-19T09:20:22;1.35;;;0.52;;
20369;SDS011;10344;47.592;9.600;2023-09-19T09:23:05;1.10;;;0.60;;
20369;SDS011;10344;47.592;9.600;2023-09-19T09:25:47;0.83;;;0.50;;
20369;SDS011;10344;47.592;9.600;2023-09-19T09:28:18;0.77;;;0.60;;
20369;SDS011;10344;47.592;9.600;2023-09-19T09:30:45;0.55;;;0.45;;
20369;SDS011;10344;47.592;9.600;2023-09-19T09:33:12;0.60;;;0.50;;
20369;SDS011;10344;47.592;9.600;2023-09-19T09:36:02;0.55;;;0.55;;
20369;SDS011;10344;47.592;9.600;2023-09-19T09:38:30;1.15;;;0.40;;
20369;SDS011;10344;47.592;9.600;2023-09-19T09:41:11;0.68;;;0.47;;
20369;SDS011;10344;47.592;9.600;2023-09-19T09:43:41;1.80;;;0.70;;
20369;SDS011;10344;47.592;9.600;2023-09-19T09:46:12;0.80;;;0.70;;
20369;SDS011;10344;47.592;9.600;2023-09-19T09:51:39;1.10;;;0.60;;
20369;SDS011;10344;47.592;9.600;2023-09-19T09:54:11;0.85;;;0.70;;
20369;SDS011;10344;47.592;9.600;2023-09-19T09:56:52;0.85;;;0.60;;
20369;SDS011;10344;47.592;9.600;2023-09-19T10:02:15;1.63;;;0.85;;
20369;SDS011;10344;47.592;9.600;2023-09-19T10:04:54;0.65;;;0.60;;
20369;SDS011;10344;47.592;9.600;2023-09-19T10:07:28;0.90;;;0.65;;
20369;SDS011;10344;47.592;9.600;2023-09-19T10:13:06;1.77;;;0.68;;
20369;SDS011;10344;47.592;9.600;2023-09-19T10:15:32;0.93;;;0.77;;
20369;SDS011;10344;47.592;9.600;2023-09-19T10:18:04;0.70;;;0.60;;
20369;SDS011;10344;47.592;9.600;2023-09-19T10:20:33;1.50;;;0.90;;
20369;SDS011;10344;47.592;9.600;2023-09-19T10:23:05;1.40;;;0.73;;
20369;SDS011;10344;47.592;9.600;2023-09-19T10:25:43;0.93;;;0.70;;
20369;SDS011;10344;47.592;9.600;2023-09-19T10:28:12;1.33;;;0.70;;
20369;SDS011;10344;47.592;9.600;2023-09-19T10:30:44;1.20;;;0.80;;
20369;SDS011;10344;47.592;9.600;2023-09-19T10:33:20;1.20;;;0.70;;
20369;SDS011;10344;47.592;9.600;2023-09-19T10:35:50;1.13;;;0.63;;
20369;SDS011;10344;47.592;9.600;2023-09-19T10:38:25;2.63;;;0.82;;
20369;SDS011;10344;47.592;9.600;2023-09-19T10:40:54;1.23;;;0.82;;
20369;SDS011;10344;47.592;9.600;2023-09-19T10:43:31;1.85;;;0.80;;
20369;SDS011;10344;47.592;9.600;2023-09-19T10:46:07;1.23;;;0.65;;
20369;SDS011;10344;47.592;9.600;2023-09-19T10:48:38;0.90;;;0.60;;
20369;SDS011;10344;47.592;9.600;2023-09-19T10:51:12;0.85;;;0.68;;
20369;SDS011;10344;47.592;9.600;2023-09-19T10:53:48;1.50;;;0.70;;
20369;SDS011;10344;47.592;9.600;2023-09-19T10:56:37;1.15;;;0.90;;
20369;SDS011;10344;47.592;9.600;2023-09-19T11:01:51;1.10;;;0.65;;
20369;SDS011;10344;47.592;9.600;2023-09-19T11:04:30;2.05;;;1.10;;
20369;SDS011;10344;47.592;9.600;2023-09-19T11:06:59;1.17;;;0.70;;
20369;SDS011;10344;47.592;9.600;2023-09-19T11:15:11;1.13;;;0.80;;
20369;SDS011;10344;47.592;9.600;2023-09-19T11:26:47;0.88;;;0.70;;
20369;SDS011;10344;47.592;9.600;2023-09-19T11:31:52;0.65;;;0.60;;
20369;SDS011;10344;47.592;9.600;2023-09-19T11:39:39;1.23;;;0.60;;
20369;SDS011;10344;47.592;9.600;2023-09-19T11:42:41;0.80;;;0.60;;
20369;SDS011;10344;47.592;9.600;2023-09-19T11:48:15;1.17;;;0.80;;
20369;SDS011;10344;47.592;9.600;2023-09-19T11:50:43;1.00;;;0.60;;
20369;SDS011;10344;47.592;9.600;2023-09-19T11:53:13;1.50;;;0.80;;
20369;SDS011;10344;47.592;9.600;2023-09-19T11:55:42;0.98;;;0.60;;
20369;SDS011;10344;47.592;9.600;2023-09-19T11:58:08;2.80;;;1.10;;
20369;SDS011;10344;47.592;9.600;2023-09-19T12:00:40;0.98;;;0.73;;
20369;SDS011;10344;47.592;9.600;2023-09-19T12:03:11;0.83;;;0.60;;
20369;SDS011;10344;47.592;9.600;2023-09-19T12:05:39;1.40;;;0.80;;
20369;SDS011;10344;47.592;9.600;2023-09-19T12:08:05;0.93;;;0.60;;
20369;SDS011;10344;47.592;9.600;2023-09-19T12:10:44;0.88;;;0.80;;
20369;SDS011;10344;47.592;9.600;2023-09-19T12:13:17;0.70;;;0.60;;
20369;SDS011;10344;47.592;9.600;2023-09-19T12:15:43;1.50;;;0.70;;
20369;SDS011;10344;47.592;9.600;2023-09-19T12:20:56;1.98;;;0.88;;
20369;SDS011;10344;47.592;9.600;2023-09-19T12:23:29;2.22;;;0.95;;
20369;SDS011;10344;47.592;9.600;2023-09-19T12:25:55;1.20;;;0.60;;
20369;SDS011;10344;47.592;9.600;2023-09-19T12:28:22;1.08;;;0.73;;
20369;SDS011;10344;47.592;9.600;2023-09-19T12:30:52;1.00;;;0.80;;
20369;SDS011;10344;47.592;9.600;2023-09-19T12:33:23;1.60;;;0.73;;
20369;SDS011;10344;47.592;9.600;2023-09-19T12:35:51;1.33;;;0.73;;
20369;SDS011;10344;47.592;9.600;2023-09-19T12:38:25;0.70;;;0.60;;
20369;SDS011;10344;47.592;9.600;2023-09-19T12:41:01;1.45;;;0.63;;
20369;SDS011;10344;47.592;9.600;2023-09-19T12:43:31;2.10;;;0.80;;
20369;SDS011;10344;47.592;9.600;2023-09-19T12:45:58;1.23;;;0.63;;
20369;SDS011;10344;47.592;9.600;2023-09-19T12:48:25;2.53;;;1.10;;
20369;SDS011;10344;47.592;9.600;2023-09-19T12:51:10;1.77;;;1.10;;
20369;SDS011;10344;47.592;9.600;2023-09-19T12:53:46;1.90;;;0.85;;
20369;SDS011;10344;47.592;9.600;2023-09-19T12:56:22;1.42;;;0.65;;
20369;SDS011;10344;47.592;9.600;2023-09-19T12:58:49;0.83;;;0.70;;
20369;SDS011;10344;47.592;9.600;2023-09-19T13:01:22;1.15;;;0.82;;
20369;SDS011;10344;47.592;9.600;2023-09-19T13:04:11;1.40;;;0.70;;
20369;SDS011;10344;47.592;9.600;2023-09-19T13:07:00;1.17;;;0.60;;
20369;SDS011;10344;47.592;9.600;2023-09-19T13:09:27;1.58;;;0.70;;
20369;SDS011;10344;47.592;9.600;2023-09-19T13:11:59;0.85;;;0.50;;
20369;SDS011;10344;47.592;9.600;2023-09-19T13:14:28;2.00;;;0.52;;
20369;SDS011;10344;47.592;9.600;2023-09-19T13:17:06;1.55;;;0.73;;
20369;SDS011;10344;47.592;9.600;2023-09-19T13:25:15;1.27;;;0.80;;
20369;SDS011;10344;47.592;9.600;2023-09-19T13:27:45;1.70;;;0.80;;
20369;SDS011;10344;47.592;9.600;2023-09-19T13:30:13;1.35;;;0.82;;
20369;SDS011;10344;47.592;9.600;2023-09-19T13:32:39;0.75;;;0.65;;
20369;SDS011;10344;47.592;9.600;2023-09-19T13:35:06;1.90;;;0.80;;
20369;SDS011;10344;47.592;9.600;2023-09-19T13:37:37;0.97;;;0.60;;
20369;SDS011;10344;47.592;9.600;2023-09-19T13:40:09;1.90;;;0.80;;
20369;SDS011;10344;47.592;9.600;2023-09-19T13:42:38;1.67;;;0.73;;
20369;SDS011;10344;47.592;9.600;2023-09-19T13:45:05;1.00;;;0.70;;
20369;SDS011;10344;47.592;9.600;2023-09-19T13:47:35;1.00;;;0.73;;
20369;SDS011;10344;47.592;9.600;2023-09-19T13:50:03;1.15;;;0.77;;
20369;SDS011;10344;47.592;9.600;2023-09-19T13:52:30;1.02;;;0.73;;
20369;SDS011;10344;47.592;9.600;2023-09-19T13:54:56;1.75;;;0.90;;
20369;SDS011;10344;47.592;9.600;2023-09-19T13:57:26;1.98;;;0.80;;
20369;SDS011;10344;47.592;9.600;2023-09-19T13:59:52;0.88;;;0.68;;
20369;SDS011;10344;47.592;9.600;2023-09-19T14:02:19;1.50;;;0.80;;
20369;SDS011;10344;47.592;9.600;2023-09-19T14:04:56;1.92;;;0.75;;
20369;SDS011;10344;47.592;9.600;2023-09-19T14:07:23;0.73;;;0.60;;
20369;SDS011;10344;47.592;9.600;2023-09-19T14:09:48;1.40;;;0.80;;
20369;SDS011;10344;47.592;9.600;2023-09-19T14:12:14;1.70;;;1.00;;
20369;SDS011;10344;47.592;9.600;2023-09-19T14:14:40;1.70;;;0.73;;
20369;SDS011;10344;47.592;9.600;2023-09-19T14:17:06;1.10;;;0.80;;
20369;SDS011;10344;47.592;9.600;2023-09-19T14:19:36;1.58;;;0.85;;
20369;SDS011;10344;47.592;9.600;2023-09-19T14:22:02;1.17;;;0.80;;
20369;SDS011;10344;47.592;9.600;2023-09-19T14:24:32;1.60;;;0.70;;
20369;SDS011;10344;47.592;9.600;2023-09-19T14:26:59;1.17;;;0.60;;
20369;SDS011;10344;47.592;9.600;2023-09-19T14:29:25;1.10;;;0.52;;
20369;SDS011;10344;47.592;9.600;2023-09-19T14:31:56;0.82;;;0.60;;
20369;SDS011;10344;47.592;9.600;2023-09-19T14:34:24;0.63;;;0.50;;
20369;SDS011;10344;47.592;9.600;2023-09-19T14:36:52;0.60;;;0.50;;
20369;SDS011;10344;47.592;9.600;2023-09-19T14:39:19;0.60;;;0.47;;
20369;SDS011;10344;47.592;9.600;2023-09-19T14:41:45;1.10;;;0.60;;
20369;SDS011;10344;47.592;9.600;2023-09-19T14:44:11;1.07;;;0.53;;
20369;SDS011;10344;47.592;9.600;2023-09-19T14:46:38;0.80;;;0.60;;
20369;SDS011;10344;47.592;9.600;2023-09-19T14:49:04;0.95;;;0.70;;
20369;SDS011;10344;47.592;9.600;2023-09-19T14:51:33;0.85;;;0.60;;
20369;SDS011;10344;47.592;9.600;2023-09-19T14:54:02;0.85;;;0.65;;
20369;SDS011;10344;47.592;9.600;2023-09-19T14:56:28;0.52;;;0.40;;
20369;SDS011;10344;47.592;9.600;2023-09-19T14:58:59;0.90;;;0.60;;
20369;SDS011;10344;47.592;9.600;2023-09-19T15:01:32;0.70;;;0.53;;
20369;SDS011;10344;47.592;9.600;2023-09-19T15:04:00;0.60;;;0.50;;
20369;SDS011;10344;47.592;9.600;2023-09-19T15:06:31;0.60;;;0.47;;
20369;SDS011;10344;47.592;9.600;2023-09-19T15:08:57;0.63;;;0.55;;
20369;SDS011;10344;47.592;9.600;2023-09-19T15:11:26;1.23;;;0.55;;
20369;SDS011;10344;47.592;9.600;2023-09-19T15:13:53;0.60;;;0.60;;
20369;SDS011;10344;47.592;9.600;2023-09-19T15:16:19;1.17;;;0.60;;
20369;SDS011;10344;47.592;9.600;2023-09-19T15:18:48;0.80;;;0.60;;
20369;SDS011;10344;47.592;9.600;2023-09-19T15:21:17;0.70;;;0.50;;
20369;SDS011;10344;47.592;9.600;2023-09-19T15:23:43;1.27;;;0.70;;
20369;SDS011;10344;47.592;9.600;2023-09-19T15:26:13;0.63;;;0.60;;
20369;SDS011;10344;47.592;9.600;2023-09-19T15:28:45;0.98;;;0.57;;
20369;SDS011;10344;47.592;9.600;2023-09-19T15:31:11;1.60;;;0.80;;
20369;SDS011;10344;47.592;9.600;2023-09-19T15:33:40;1.00;;;0.50;;
20369;SDS011;10344;47.592;9.600;2023-09-19T15:36:14;1.70;;;0.73;;
20369;SDS011;10344;47.592;9.600;2023-09-19T15:41:18;0.77;;;0.50;;
20369;SDS011;10344;47.592;9.600;2023-09-19T15:43:49;0.73;;;0.50;;
20369;SDS011;10344;47.592;9.600;2023-09-19T15:46:14;0.60;;;0.60;;
20369;SDS011;10344;47.592;9.600;2023-09-19T15:48:42;0.93;;;0.60;;
20369;SDS011;10344;47.592;9.600;2023-09-19T15:51:12;0.90;;;0.50;;
20369;SDS011;10344;47.592;9.600;2023-09-19T15:56:14;0.90;;;0.63;;
20369;SDS011;10344;47.592;9.600;2023-09-19T15:58:43;1.00;;;0.50;;
20369;SDS011;10344;47.592;9.600;2023-09-19T16:01:14;0.60;;;0.50;;
20369;SDS011;10344;47.592;9.600;2023-09-19T16:03:43;1.65;;;0.60;;
20369;SDS011;10344;47.592;9.600;2023-09-19T16:06:15;0.55;;;0.50;;
20369;SDS011;10344;47.592;9.600;2023-09-19T16:08:46;1.17;;;0.77;;
20369;SDS011;10344;47.592;9.600;2023-09-19T16:11:13;0.52;;;0.43;;
20369;SDS011;10344;47.592;9.600;2023-09-19T16:13:46;0.50;;;0.45;;
20369;SDS011;10344;47.592;9.600;2023-09-19T16:16:13;1.00;;;0.53;;